<?xml version="1.0" encoding="UTF-8" standalone="no" ?>
<gpx xmlns="http://www.topografix.com/GPX/1/1" xmlns:xsi="http://www.w3.org/2001/XMLSchema-instance" xsi:schemaLocation="http://www.topografix.com/GPX/1/1 http://www.topografix.com/GPX/1/1/gpx.xsd" version="1.1" creator="VisuGPX - https://www.visugpx.com">
  <metadata>
    <name>Villerach, Saint Etienne de Pomers, col del Forn</name>
    <desc><![CDATA[TOPO sur notre site:
https://randonnees-pyrenees-orientales.e-monsite.com/pages/pyrenees-orientales/conflent-bas/villerach-saint-etienne-de-pomers-col-del-forn-1.html]]></desc>
  </metadata>
  <trk>
    <name><![CDATA[11149754-Villerach, Saint Etienne de Pomers, col del Forn]]></name>
    <extensions>
      <line xmlns="http://www.topografix.com/GPX/gpx_style/0/2">
        <color>0000FF</color>
        <width>4</width>
      </line>
    </extensions>
    <trkseg>
      <trkpt lat="42.59509" lon="2.45258">
        <ele>467</ele>
        <time>2022-10-08T08:56:23Z</time>
      </trkpt>
      <trkpt lat="42.59502" lon="2.45281">
        <ele>470</ele>
        <time>2022-10-08T08:56:47Z</time>
      </trkpt>
      <trkpt lat="42.59481" lon="2.45299">
        <ele>471</ele>
        <time>2022-10-08T08:57:21Z</time>
      </trkpt>
      <trkpt lat="42.59464" lon="2.45303">
        <ele>470</ele>
        <time>2022-10-08T08:57:44Z</time>
      </trkpt>
      <trkpt lat="42.5946" lon="2.45306">
        <ele>470</ele>
        <time>2022-10-08T08:57:50Z</time>
      </trkpt>
      <trkpt lat="42.59457" lon="2.45317">
        <ele>471</ele>
        <time>2022-10-08T08:58:01Z</time>
      </trkpt>
      <trkpt lat="42.59429" lon="2.45369">
        <ele>472</ele>
        <time>2022-10-08T08:59:05Z</time>
      </trkpt>
      <trkpt lat="42.59418" lon="2.45402">
        <ele>473</ele>
        <time>2022-10-08T08:59:40Z</time>
      </trkpt>
      <trkpt lat="42.5942" lon="2.45449">
        <ele>478</ele>
        <time>2022-10-08T09:00:26Z</time>
      </trkpt>
      <trkpt lat="42.59415" lon="2.45449">
        <ele>478</ele>
        <time>2022-10-08T09:00:33Z</time>
      </trkpt>
      <trkpt lat="42.59405" lon="2.45475">
        <ele>481</ele>
        <time>2022-10-08T09:01:02Z</time>
      </trkpt>
      <trkpt lat="42.59397" lon="2.45475">
        <ele>482</ele>
        <time>2022-10-08T09:01:13Z</time>
      </trkpt>
      <trkpt lat="42.59397" lon="2.45453">
        <ele>480</ele>
        <time>2022-10-08T09:01:34Z</time>
      </trkpt>
      <trkpt lat="42.59394" lon="2.45446">
        <ele>479</ele>
        <time>2022-10-08T09:01:42Z</time>
      </trkpt>
      <trkpt lat="42.59372" lon="2.4546">
        <ele>483</ele>
        <time>2022-10-08T09:02:15Z</time>
      </trkpt>
      <trkpt lat="42.59359" lon="2.45458">
        <ele>484</ele>
        <time>2022-10-08T09:02:32Z</time>
      </trkpt>
      <trkpt lat="42.59352" lon="2.45439">
        <ele>482</ele>
        <time>2022-10-08T09:02:53Z</time>
      </trkpt>
      <trkpt lat="42.59354" lon="2.45411">
        <ele>480</ele>
        <time>2022-10-08T09:03:20Z</time>
      </trkpt>
      <trkpt lat="42.5936" lon="2.45399">
        <ele>480</ele>
        <time>2022-10-08T09:03:35Z</time>
      </trkpt>
      <trkpt lat="42.59367" lon="2.45393">
        <ele>479</ele>
        <time>2022-10-08T09:03:46Z</time>
      </trkpt>
      <trkpt lat="42.59372" lon="2.45376">
        <ele>479</ele>
        <time>2022-10-08T09:04:04Z</time>
      </trkpt>
      <trkpt lat="42.59361" lon="2.45308">
        <ele>480</ele>
        <time>2022-10-08T09:05:12Z</time>
      </trkpt>
      <trkpt lat="42.59359" lon="2.45336">
        <ele>483</ele>
        <time>2022-10-08T09:05:40Z</time>
      </trkpt>
      <trkpt lat="42.59361" lon="2.4534">
        <ele>483</ele>
        <time>2022-10-08T09:05:45Z</time>
      </trkpt>
      <trkpt lat="42.59359" lon="2.45339">
        <ele>483</ele>
        <time>2022-10-08T09:05:47Z</time>
      </trkpt>
      <trkpt lat="42.59361" lon="2.45338">
        <ele>483</ele>
        <time>2022-10-08T09:05:50Z</time>
      </trkpt>
      <trkpt lat="42.5936" lon="2.45336">
        <ele>483</ele>
        <time>2022-10-08T09:05:53Z</time>
      </trkpt>
      <trkpt lat="42.59362" lon="2.45345">
        <ele>482</ele>
        <time>2022-10-08T09:06:02Z</time>
      </trkpt>
      <trkpt lat="42.59358" lon="2.4535">
        <ele>483</ele>
        <time>2022-10-08T09:06:09Z</time>
      </trkpt>
      <trkpt lat="42.59357" lon="2.45357">
        <ele>483</ele>
        <time>2022-10-08T09:06:16Z</time>
      </trkpt>
      <trkpt lat="42.59355" lon="2.45356">
        <ele>483</ele>
        <time>2022-10-08T09:06:19Z</time>
      </trkpt>
      <trkpt lat="42.59354" lon="2.45359">
        <ele>483</ele>
        <time>2022-10-08T09:06:22Z</time>
      </trkpt>
      <trkpt lat="42.59352" lon="2.45354">
        <ele>484</ele>
        <time>2022-10-08T09:06:28Z</time>
      </trkpt>
      <trkpt lat="42.59356" lon="2.45358">
        <ele>483</ele>
        <time>2022-10-08T09:06:34Z</time>
      </trkpt>
      <trkpt lat="42.59357" lon="2.45356">
        <ele>483</ele>
        <time>2022-10-08T09:06:37Z</time>
      </trkpt>
      <trkpt lat="42.59352" lon="2.45356">
        <ele>484</ele>
        <time>2022-10-08T09:06:43Z</time>
      </trkpt>
      <trkpt lat="42.59356" lon="2.45357">
        <ele>483</ele>
        <time>2022-10-08T09:06:49Z</time>
      </trkpt>
      <trkpt lat="42.59358" lon="2.45355">
        <ele>483</ele>
        <time>2022-10-08T09:06:52Z</time>
      </trkpt>
      <trkpt lat="42.59355" lon="2.45355">
        <ele>483</ele>
        <time>2022-10-08T09:06:56Z</time>
      </trkpt>
      <trkpt lat="42.59357" lon="2.45356">
        <ele>483</ele>
        <time>2022-10-08T09:06:59Z</time>
      </trkpt>
      <trkpt lat="42.59358" lon="2.45354">
        <ele>483</ele>
        <time>2022-10-08T09:07:01Z</time>
      </trkpt>
      <trkpt lat="42.59355" lon="2.45359">
        <ele>483</ele>
        <time>2022-10-08T09:07:08Z</time>
      </trkpt>
      <trkpt lat="42.59354" lon="2.4535">
        <ele>484</ele>
        <time>2022-10-08T09:07:17Z</time>
      </trkpt>
      <trkpt lat="42.59354" lon="2.45357">
        <ele>483</ele>
        <time>2022-10-08T09:07:24Z</time>
      </trkpt>
      <trkpt lat="42.59356" lon="2.45353">
        <ele>483</ele>
        <time>2022-10-08T09:07:28Z</time>
      </trkpt>
      <trkpt lat="42.59353" lon="2.45353">
        <ele>484</ele>
        <time>2022-10-08T09:07:32Z</time>
      </trkpt>
      <trkpt lat="42.59354" lon="2.45362">
        <ele>483</ele>
        <time>2022-10-08T09:07:41Z</time>
      </trkpt>
      <trkpt lat="42.59351" lon="2.45367">
        <ele>483</ele>
        <time>2022-10-08T09:07:48Z</time>
      </trkpt>
      <trkpt lat="42.59348" lon="2.45365">
        <ele>484</ele>
        <time>2022-10-08T09:07:52Z</time>
      </trkpt>
      <trkpt lat="42.59343" lon="2.45367">
        <ele>485</ele>
        <time>2022-10-08T09:07:59Z</time>
      </trkpt>
      <trkpt lat="42.59337" lon="2.45375">
        <ele>485</ele>
        <time>2022-10-08T09:08:10Z</time>
      </trkpt>
      <trkpt lat="42.59324" lon="2.45376">
        <ele>487</ele>
        <time>2022-10-08T09:08:28Z</time>
      </trkpt>
      <trkpt lat="42.59322" lon="2.45365">
        <ele>488</ele>
        <time>2022-10-08T09:08:39Z</time>
      </trkpt>
      <trkpt lat="42.59335" lon="2.45346">
        <ele>488</ele>
        <time>2022-10-08T09:09:04Z</time>
      </trkpt>
      <trkpt lat="42.59331" lon="2.45329">
        <ele>490</ele>
        <time>2022-10-08T09:09:22Z</time>
      </trkpt>
      <trkpt lat="42.59327" lon="2.4532">
        <ele>490</ele>
        <time>2022-10-08T09:09:32Z</time>
      </trkpt>
      <trkpt lat="42.5932" lon="2.45322">
        <ele>491</ele>
        <time>2022-10-08T09:09:42Z</time>
      </trkpt>
      <trkpt lat="42.59322" lon="2.4532">
        <ele>491</ele>
        <time>2022-10-08T09:09:45Z</time>
      </trkpt>
      <trkpt lat="42.59319" lon="2.4532">
        <ele>491</ele>
        <time>2022-10-08T09:09:49Z</time>
      </trkpt>
      <trkpt lat="42.59314" lon="2.45312">
        <ele>492</ele>
        <time>2022-10-08T09:09:59Z</time>
      </trkpt>
      <trkpt lat="42.59304" lon="2.45307">
        <ele>493</ele>
        <time>2022-10-08T09:10:13Z</time>
      </trkpt>
      <trkpt lat="42.59294" lon="2.4531">
        <ele>496</ele>
        <time>2022-10-08T09:10:27Z</time>
      </trkpt>
      <trkpt lat="42.59278" lon="2.45307">
        <ele>499</ele>
        <time>2022-10-08T09:10:49Z</time>
      </trkpt>
      <trkpt lat="42.5926" lon="2.45309">
        <ele>503</ele>
        <time>2022-10-08T09:11:13Z</time>
      </trkpt>
      <trkpt lat="42.5925" lon="2.45314">
        <ele>506</ele>
        <time>2022-10-08T09:11:27Z</time>
      </trkpt>
      <trkpt lat="42.59239" lon="2.45309">
        <ele>507</ele>
        <time>2022-10-08T09:11:42Z</time>
      </trkpt>
      <trkpt lat="42.59237" lon="2.45314">
        <ele>508</ele>
        <time>2022-10-08T09:11:48Z</time>
      </trkpt>
      <trkpt lat="42.59224" lon="2.45318">
        <ele>510</ele>
        <time>2022-10-08T09:12:06Z</time>
      </trkpt>
      <trkpt lat="42.59211" lon="2.45313">
        <ele>511</ele>
        <time>2022-10-08T09:12:24Z</time>
      </trkpt>
      <trkpt lat="42.59203" lon="2.45302">
        <ele>512</ele>
        <time>2022-10-08T09:12:39Z</time>
      </trkpt>
      <trkpt lat="42.59179" lon="2.45303">
        <ele>516</ele>
        <time>2022-10-08T09:13:11Z</time>
      </trkpt>
      <trkpt lat="42.59176" lon="2.45289">
        <ele>516</ele>
        <time>2022-10-08T09:13:25Z</time>
      </trkpt>
      <trkpt lat="42.59159" lon="2.45289">
        <ele>518</ele>
        <time>2022-10-08T09:13:48Z</time>
      </trkpt>
      <trkpt lat="42.59136" lon="2.45306">
        <ele>520</ele>
        <time>2022-10-08T09:14:23Z</time>
      </trkpt>
      <trkpt lat="42.59129" lon="2.45306">
        <ele>520</ele>
        <time>2022-10-08T09:14:32Z</time>
      </trkpt>
      <trkpt lat="42.59114" lon="2.45299">
        <ele>521</ele>
        <time>2022-10-08T09:14:54Z</time>
      </trkpt>
      <trkpt lat="42.59101" lon="2.45302">
        <ele>522</ele>
        <time>2022-10-08T09:15:11Z</time>
      </trkpt>
      <trkpt lat="42.59086" lon="2.45297">
        <ele>523</ele>
        <time>2022-10-08T09:15:32Z</time>
      </trkpt>
      <trkpt lat="42.59076" lon="2.45289">
        <ele>524</ele>
        <time>2022-10-08T09:15:47Z</time>
      </trkpt>
      <trkpt lat="42.59054" lon="2.4529">
        <ele>527</ele>
        <time>2022-10-08T09:16:17Z</time>
      </trkpt>
      <trkpt lat="42.59051" lon="2.45286">
        <ele>527</ele>
        <time>2022-10-08T09:16:22Z</time>
      </trkpt>
      <trkpt lat="42.59" lon="2.45276">
        <ele>535</ele>
        <time>2022-10-08T09:17:31Z</time>
      </trkpt>
      <trkpt lat="42.58993" lon="2.45272">
        <ele>537</ele>
        <time>2022-10-08T09:17:41Z</time>
      </trkpt>
      <trkpt lat="42.58988" lon="2.45292">
        <ele>536</ele>
        <time>2022-10-08T09:18:02Z</time>
      </trkpt>
      <trkpt lat="42.58975" lon="2.45298">
        <ele>539</ele>
        <time>2022-10-08T09:18:20Z</time>
      </trkpt>
      <trkpt lat="42.58965" lon="2.45288">
        <ele>543</ele>
        <time>2022-10-08T09:18:37Z</time>
      </trkpt>
      <trkpt lat="42.58946" lon="2.45275">
        <ele>549</ele>
        <time>2022-10-08T09:19:05Z</time>
      </trkpt>
      <trkpt lat="42.58938" lon="2.45266">
        <ele>552</ele>
        <time>2022-10-08T09:19:19Z</time>
      </trkpt>
      <trkpt lat="42.58906" lon="2.45249">
        <ele>563</ele>
        <time>2022-10-08T09:20:05Z</time>
      </trkpt>
      <trkpt lat="42.58885" lon="2.45246">
        <ele>570</ele>
        <time>2022-10-08T09:20:33Z</time>
      </trkpt>
      <trkpt lat="42.58873" lon="2.4525">
        <ele>575</ele>
        <time>2022-10-08T09:20:50Z</time>
      </trkpt>
      <trkpt lat="42.58863" lon="2.45258">
        <ele>577</ele>
        <time>2022-10-08T09:21:05Z</time>
      </trkpt>
      <trkpt lat="42.58844" lon="2.45262">
        <ele>583</ele>
        <time>2022-10-08T09:21:31Z</time>
      </trkpt>
      <trkpt lat="42.58835" lon="2.45261">
        <ele>586</ele>
        <time>2022-10-08T09:21:43Z</time>
      </trkpt>
      <trkpt lat="42.58828" lon="2.45263">
        <ele>589</ele>
        <time>2022-10-08T09:21:52Z</time>
      </trkpt>
      <trkpt lat="42.58809" lon="2.45255">
        <ele>597</ele>
        <time>2022-10-08T09:22:19Z</time>
      </trkpt>
      <trkpt lat="42.58802" lon="2.45255">
        <ele>600</ele>
        <time>2022-10-08T09:22:28Z</time>
      </trkpt>
      <trkpt lat="42.58773" lon="2.45265">
        <ele>611</ele>
        <time>2022-10-08T09:23:08Z</time>
      </trkpt>
      <trkpt lat="42.58741" lon="2.45258">
        <ele>625</ele>
        <time>2022-10-08T09:23:51Z</time>
      </trkpt>
      <trkpt lat="42.58735" lon="2.45259">
        <ele>627</ele>
        <time>2022-10-08T09:23:59Z</time>
      </trkpt>
      <trkpt lat="42.58732" lon="2.45258">
        <ele>628</ele>
        <time>2022-10-08T09:24:04Z</time>
      </trkpt>
      <trkpt lat="42.58733" lon="2.45256">
        <ele>628</ele>
        <time>2022-10-08T09:24:06Z</time>
      </trkpt>
      <trkpt lat="42.58721" lon="2.45257">
        <ele>632</ele>
        <time>2022-10-08T09:24:22Z</time>
      </trkpt>
      <trkpt lat="42.58708" lon="2.45263">
        <ele>637</ele>
        <time>2022-10-08T09:24:40Z</time>
      </trkpt>
      <trkpt lat="42.58694" lon="2.45277">
        <ele>642</ele>
        <time>2022-10-08T09:25:04Z</time>
      </trkpt>
      <trkpt lat="42.58674" lon="2.45284">
        <ele>650</ele>
        <time>2022-10-08T09:25:31Z</time>
      </trkpt>
      <trkpt lat="42.58652" lon="2.45303">
        <ele>655</ele>
        <time>2022-10-08T09:26:06Z</time>
      </trkpt>
      <trkpt lat="42.58622" lon="2.453">
        <ele>660</ele>
        <time>2022-10-08T09:26:46Z</time>
      </trkpt>
      <trkpt lat="42.58599" lon="2.45308">
        <ele>664</ele>
        <time>2022-10-08T09:27:18Z</time>
      </trkpt>
      <trkpt lat="42.58583" lon="2.45317">
        <ele>667</ele>
        <time>2022-10-08T09:27:41Z</time>
      </trkpt>
      <trkpt lat="42.58546" lon="2.45332">
        <ele>676</ele>
        <time>2022-10-08T09:28:32Z</time>
      </trkpt>
      <trkpt lat="42.58483" lon="2.45334">
        <ele>689</ele>
        <time>2022-10-08T09:29:56Z</time>
      </trkpt>
      <trkpt lat="42.58474" lon="2.45346">
        <ele>687</ele>
        <time>2022-10-08T09:30:13Z</time>
      </trkpt>
      <trkpt lat="42.58461" lon="2.45352">
        <ele>688</ele>
        <time>2022-10-08T09:30:32Z</time>
      </trkpt>
      <trkpt lat="42.58447" lon="2.45346">
        <ele>690</ele>
        <time>2022-10-08T09:30:51Z</time>
      </trkpt>
      <trkpt lat="42.58435" lon="2.45344">
        <ele>692</ele>
        <time>2022-10-08T09:31:07Z</time>
      </trkpt>
      <trkpt lat="42.58422" lon="2.45352">
        <ele>692</ele>
        <time>2022-10-08T09:31:26Z</time>
      </trkpt>
      <trkpt lat="42.58418" lon="2.45357">
        <ele>692</ele>
        <time>2022-10-08T09:31:34Z</time>
      </trkpt>
      <trkpt lat="42.58381" lon="2.45362">
        <ele>692</ele>
        <time>2022-10-08T09:32:23Z</time>
      </trkpt>
      <trkpt lat="42.58369" lon="2.45352">
        <ele>693</ele>
        <time>2022-10-08T09:32:42Z</time>
      </trkpt>
      <trkpt lat="42.58353" lon="2.45344">
        <ele>694</ele>
        <time>2022-10-08T09:33:05Z</time>
      </trkpt>
      <trkpt lat="42.58337" lon="2.45343">
        <ele>694</ele>
        <time>2022-10-08T09:33:26Z</time>
      </trkpt>
      <trkpt lat="42.58325" lon="2.45346">
        <ele>693</ele>
        <time>2022-10-08T09:33:42Z</time>
      </trkpt>
      <trkpt lat="42.58319" lon="2.45352">
        <ele>692</ele>
        <time>2022-10-08T09:33:52Z</time>
      </trkpt>
      <trkpt lat="42.583" lon="2.45359">
        <ele>689</ele>
        <time>2022-10-08T09:34:19Z</time>
      </trkpt>
      <trkpt lat="42.58282" lon="2.45372">
        <ele>688</ele>
        <time>2022-10-08T09:34:46Z</time>
      </trkpt>
      <trkpt lat="42.58258" lon="2.45399">
        <ele>690</ele>
        <time>2022-10-08T09:35:27Z</time>
      </trkpt>
      <trkpt lat="42.58238" lon="2.45417">
        <ele>695</ele>
        <time>2022-10-08T09:35:59Z</time>
      </trkpt>
      <trkpt lat="42.58232" lon="2.45431">
        <ele>699</ele>
        <time>2022-10-08T09:36:15Z</time>
      </trkpt>
      <trkpt lat="42.5823" lon="2.45444">
        <ele>702</ele>
        <time>2022-10-08T09:36:28Z</time>
      </trkpt>
      <trkpt lat="42.58212" lon="2.45452">
        <ele>708</ele>
        <time>2022-10-08T09:36:54Z</time>
      </trkpt>
      <trkpt lat="42.58206" lon="2.45461">
        <ele>711</ele>
        <time>2022-10-08T09:37:06Z</time>
      </trkpt>
      <trkpt lat="42.58204" lon="2.45476">
        <ele>715</ele>
        <time>2022-10-08T09:37:21Z</time>
      </trkpt>
      <trkpt lat="42.58207" lon="2.45483">
        <ele>716</ele>
        <time>2022-10-08T09:37:29Z</time>
      </trkpt>
      <trkpt lat="42.5821" lon="2.4548">
        <ele>714</ele>
        <time>2022-10-08T09:37:34Z</time>
      </trkpt>
      <trkpt lat="42.58205" lon="2.45491">
        <ele>718</ele>
        <time>2022-10-08T09:37:46Z</time>
      </trkpt>
      <trkpt lat="42.58196" lon="2.45491">
        <ele>721</ele>
        <time>2022-10-08T09:37:58Z</time>
      </trkpt>
      <trkpt lat="42.58166" lon="2.45484">
        <ele>729</ele>
        <time>2022-10-08T09:38:39Z</time>
      </trkpt>
      <trkpt lat="42.58146" lon="2.45484">
        <ele>734</ele>
        <time>2022-10-08T09:39:06Z</time>
      </trkpt>
      <trkpt lat="42.58142" lon="2.45488">
        <ele>736</ele>
        <time>2022-10-08T09:39:12Z</time>
      </trkpt>
      <trkpt lat="42.58126" lon="2.45487">
        <ele>739</ele>
        <time>2022-10-08T09:39:34Z</time>
      </trkpt>
      <trkpt lat="42.5812" lon="2.45484">
        <ele>740</ele>
        <time>2022-10-08T09:39:42Z</time>
      </trkpt>
      <trkpt lat="42.58111" lon="2.45492">
        <ele>744</ele>
        <time>2022-10-08T09:39:56Z</time>
      </trkpt>
      <trkpt lat="42.58093" lon="2.455">
        <ele>751</ele>
        <time>2022-10-08T09:40:22Z</time>
      </trkpt>
      <trkpt lat="42.58098" lon="2.4551">
        <ele>753</ele>
        <time>2022-10-08T09:40:34Z</time>
      </trkpt>
      <trkpt lat="42.58106" lon="2.45511">
        <ele>752</ele>
        <time>2022-10-08T09:40:44Z</time>
      </trkpt>
      <trkpt lat="42.58101" lon="2.45515">
        <ele>754</ele>
        <time>2022-10-08T09:40:52Z</time>
      </trkpt>
      <trkpt lat="42.5808" lon="2.45518">
        <ele>761</ele>
        <time>2022-10-08T09:41:20Z</time>
      </trkpt>
      <trkpt lat="42.58053" lon="2.45507">
        <ele>768</ele>
        <time>2022-10-08T09:41:58Z</time>
      </trkpt>
      <trkpt lat="42.58025" lon="2.45489">
        <ele>774</ele>
        <time>2022-10-08T09:42:39Z</time>
      </trkpt>
      <trkpt lat="42.58004" lon="2.45461">
        <ele>772</ele>
        <time>2022-10-08T09:43:18Z</time>
      </trkpt>
      <trkpt lat="42.57995" lon="2.45454">
        <ele>773</ele>
        <time>2022-10-08T09:43:32Z</time>
      </trkpt>
      <trkpt lat="42.57996" lon="2.45463">
        <ele>776</ele>
        <time>2022-10-08T09:43:41Z</time>
      </trkpt>
      <trkpt lat="42.57988" lon="2.45457">
        <ele>776</ele>
        <time>2022-10-08T09:43:53Z</time>
      </trkpt>
      <trkpt lat="42.57988" lon="2.45453">
        <ele>775</ele>
        <time>2022-10-08T09:43:57Z</time>
      </trkpt>
      <trkpt lat="42.57974" lon="2.45437">
        <ele>775</ele>
        <time>2022-10-08T09:44:22Z</time>
      </trkpt>
      <trkpt lat="42.57966" lon="2.45442">
        <ele>779</ele>
        <time>2022-10-08T09:44:34Z</time>
      </trkpt>
      <trkpt lat="42.57964" lon="2.45466">
        <ele>787</ele>
        <time>2022-10-08T09:44:57Z</time>
      </trkpt>
      <trkpt lat="42.57965" lon="2.45473">
        <ele>788</ele>
        <time>2022-10-08T09:45:04Z</time>
      </trkpt>
      <trkpt lat="42.57968" lon="2.45469">
        <ele>786</ele>
        <time>2022-10-08T09:45:10Z</time>
      </trkpt>
      <trkpt lat="42.57966" lon="2.45494">
        <ele>794</ele>
        <time>2022-10-08T09:45:35Z</time>
      </trkpt>
      <trkpt lat="42.57974" lon="2.45495">
        <ele>793</ele>
        <time>2022-10-08T09:45:45Z</time>
      </trkpt>
      <trkpt lat="42.57975" lon="2.45499">
        <ele>794</ele>
        <time>2022-10-08T09:45:49Z</time>
      </trkpt>
      <trkpt lat="42.57957" lon="2.45491">
        <ele>796</ele>
        <time>2022-10-08T09:46:15Z</time>
      </trkpt>
      <trkpt lat="42.57951" lon="2.45482">
        <ele>795</ele>
        <time>2022-10-08T09:46:27Z</time>
      </trkpt>
      <trkpt lat="42.57952" lon="2.45493">
        <ele>798</ele>
        <time>2022-10-08T09:46:38Z</time>
      </trkpt>
      <trkpt lat="42.57949" lon="2.45495">
        <ele>799</ele>
        <time>2022-10-08T09:46:42Z</time>
      </trkpt>
      <trkpt lat="42.57948" lon="2.45501">
        <ele>801</ele>
        <time>2022-10-08T09:46:48Z</time>
      </trkpt>
      <trkpt lat="42.5795" lon="2.455">
        <ele>800</ele>
        <time>2022-10-08T09:46:51Z</time>
      </trkpt>
      <trkpt lat="42.5795" lon="2.45503">
        <ele>801</ele>
        <time>2022-10-08T09:46:54Z</time>
      </trkpt>
      <trkpt lat="42.57938" lon="2.45491">
        <ele>801</ele>
        <time>2022-10-08T09:47:14Z</time>
      </trkpt>
      <trkpt lat="42.57935" lon="2.45491">
        <ele>801</ele>
        <time>2022-10-08T09:47:18Z</time>
      </trkpt>
      <trkpt lat="42.57936" lon="2.45488">
        <ele>800</ele>
        <time>2022-10-08T09:47:21Z</time>
      </trkpt>
      <trkpt lat="42.57934" lon="2.4549">
        <ele>801</ele>
        <time>2022-10-08T09:47:24Z</time>
      </trkpt>
      <trkpt lat="42.57936" lon="2.45489">
        <ele>801</ele>
        <time>2022-10-08T09:47:27Z</time>
      </trkpt>
      <trkpt lat="42.57935" lon="2.45487">
        <ele>801</ele>
        <time>2022-10-08T09:47:30Z</time>
      </trkpt>
      <trkpt lat="42.57938" lon="2.4549">
        <ele>800</ele>
        <time>2022-10-08T09:47:35Z</time>
      </trkpt>
      <trkpt lat="42.57925" lon="2.45496">
        <ele>805</ele>
        <time>2022-10-08T09:47:53Z</time>
      </trkpt>
      <trkpt lat="42.57932" lon="2.45493">
        <ele>803</ele>
        <time>2022-10-08T09:48:03Z</time>
      </trkpt>
      <trkpt lat="42.57927" lon="2.45506">
        <ele>808</ele>
        <time>2022-10-08T09:48:17Z</time>
      </trkpt>
      <trkpt lat="42.57922" lon="2.4551">
        <ele>811</ele>
        <time>2022-10-08T09:48:25Z</time>
      </trkpt>
      <trkpt lat="42.579" lon="2.45516">
        <ele>819</ele>
        <time>2022-10-08T09:48:55Z</time>
      </trkpt>
      <trkpt lat="42.57881" lon="2.45517">
        <ele>825</ele>
        <time>2022-10-08T09:49:20Z</time>
      </trkpt>
      <trkpt lat="42.57867" lon="2.45507">
        <ele>826</ele>
        <time>2022-10-08T09:49:41Z</time>
      </trkpt>
      <trkpt lat="42.57863" lon="2.45481">
        <ele>825</ele>
        <time>2022-10-08T09:50:07Z</time>
      </trkpt>
      <trkpt lat="42.57858" lon="2.45468">
        <ele>827</ele>
        <time>2022-10-08T09:50:22Z</time>
      </trkpt>
      <trkpt lat="42.57855" lon="2.45439">
        <ele>829</ele>
        <time>2022-10-08T09:50:50Z</time>
      </trkpt>
      <trkpt lat="42.57849" lon="2.45425">
        <ele>832</ele>
        <time>2022-10-08T09:51:06Z</time>
      </trkpt>
      <trkpt lat="42.57854" lon="2.45389">
        <ele>836</ele>
        <time>2022-10-08T09:51:42Z</time>
      </trkpt>
      <trkpt lat="42.57853" lon="2.45374">
        <ele>840</ele>
        <time>2022-10-08T09:51:57Z</time>
      </trkpt>
      <trkpt lat="42.57843" lon="2.45387">
        <ele>844</ele>
        <time>2022-10-08T09:52:16Z</time>
      </trkpt>
      <trkpt lat="42.5784" lon="2.45395">
        <ele>844</ele>
        <time>2022-10-08T09:52:25Z</time>
      </trkpt>
      <trkpt lat="42.57832" lon="2.45436">
        <ele>841</ele>
        <time>2022-10-08T09:53:06Z</time>
      </trkpt>
      <trkpt lat="42.57833" lon="2.45444">
        <ele>840</ele>
        <time>2022-10-08T09:53:14Z</time>
      </trkpt>
      <trkpt lat="42.57825" lon="2.45466">
        <ele>844</ele>
        <time>2022-10-08T09:53:38Z</time>
      </trkpt>
      <trkpt lat="42.57826" lon="2.45479">
        <ele>842</ele>
        <time>2022-10-08T09:53:51Z</time>
      </trkpt>
      <trkpt lat="42.5782" lon="2.4548">
        <ele>846</ele>
        <time>2022-10-08T09:53:59Z</time>
      </trkpt>
      <trkpt lat="42.57813" lon="2.45454">
        <ele>853</ele>
        <time>2022-10-08T09:54:26Z</time>
      </trkpt>
      <trkpt lat="42.57814" lon="2.45438">
        <ele>854</ele>
        <time>2022-10-08T09:54:42Z</time>
      </trkpt>
      <trkpt lat="42.5781" lon="2.4541">
        <ele>860</ele>
        <time>2022-10-08T09:55:10Z</time>
      </trkpt>
      <trkpt lat="42.57813" lon="2.45379">
        <ele>865</ele>
        <time>2022-10-08T09:55:41Z</time>
      </trkpt>
      <trkpt lat="42.57818" lon="2.45357">
        <ele>868</ele>
        <time>2022-10-08T09:56:04Z</time>
      </trkpt>
      <trkpt lat="42.57811" lon="2.45363">
        <ele>871</ele>
        <time>2022-10-08T09:56:15Z</time>
      </trkpt>
      <trkpt lat="42.57802" lon="2.45379">
        <ele>873</ele>
        <time>2022-10-08T09:56:34Z</time>
      </trkpt>
      <trkpt lat="42.578" lon="2.45399">
        <ele>869</ele>
        <time>2022-10-08T09:56:54Z</time>
      </trkpt>
      <trkpt lat="42.57796" lon="2.45409">
        <ele>870</ele>
        <time>2022-10-08T09:57:05Z</time>
      </trkpt>
      <trkpt lat="42.57793" lon="2.45411">
        <ele>871</ele>
        <time>2022-10-08T09:57:10Z</time>
      </trkpt>
      <trkpt lat="42.57786" lon="2.45436">
        <ele>873</ele>
        <time>2022-10-08T09:57:36Z</time>
      </trkpt>
      <trkpt lat="42.57786" lon="2.45443">
        <ele>873</ele>
        <time>2022-10-08T09:57:43Z</time>
      </trkpt>
      <trkpt lat="42.57789" lon="2.45444">
        <ele>871</ele>
        <time>2022-10-08T09:57:47Z</time>
      </trkpt>
      <trkpt lat="42.57783" lon="2.45453">
        <ele>874</ele>
        <time>2022-10-08T09:57:59Z</time>
      </trkpt>
      <trkpt lat="42.57778" lon="2.45467">
        <ele>877</ele>
        <time>2022-10-08T09:58:14Z</time>
      </trkpt>
      <trkpt lat="42.57773" lon="2.45449">
        <ele>882</ele>
        <time>2022-10-08T09:58:33Z</time>
      </trkpt>
      <trkpt lat="42.57774" lon="2.45437">
        <ele>882</ele>
        <time>2022-10-08T09:58:45Z</time>
      </trkpt>
      <trkpt lat="42.57777" lon="2.45434">
        <ele>880</ele>
        <time>2022-10-08T09:58:50Z</time>
      </trkpt>
      <trkpt lat="42.5777" lon="2.45409">
        <ele>887</ele>
        <time>2022-10-08T09:59:16Z</time>
      </trkpt>
      <trkpt lat="42.57776" lon="2.45362">
        <ele>892</ele>
        <time>2022-10-08T10:00:03Z</time>
      </trkpt>
      <trkpt lat="42.57782" lon="2.45345">
        <ele>892</ele>
        <time>2022-10-08T10:00:22Z</time>
      </trkpt>
      <trkpt lat="42.57789" lon="2.45336">
        <ele>890</ele>
        <time>2022-10-08T10:00:35Z</time>
      </trkpt>
      <trkpt lat="42.57787" lon="2.45333">
        <ele>892</ele>
        <time>2022-10-08T10:00:39Z</time>
      </trkpt>
      <trkpt lat="42.57781" lon="2.45338">
        <ele>894</ele>
        <time>2022-10-08T10:00:48Z</time>
      </trkpt>
      <trkpt lat="42.57775" lon="2.45355">
        <ele>894</ele>
        <time>2022-10-08T10:01:07Z</time>
      </trkpt>
      <trkpt lat="42.57762" lon="2.45378">
        <ele>898</ele>
        <time>2022-10-08T10:01:35Z</time>
      </trkpt>
      <trkpt lat="42.57756" lon="2.45394">
        <ele>900</ele>
        <time>2022-10-08T10:01:53Z</time>
      </trkpt>
      <trkpt lat="42.57757" lon="2.45404">
        <ele>897</ele>
        <time>2022-10-08T10:02:03Z</time>
      </trkpt>
      <trkpt lat="42.57744" lon="2.45435">
        <ele>903</ele>
        <time>2022-10-08T10:02:38Z</time>
      </trkpt>
      <trkpt lat="42.57736" lon="2.45444">
        <ele>908</ele>
        <time>2022-10-08T10:02:52Z</time>
      </trkpt>
      <trkpt lat="42.57731" lon="2.45425">
        <ele>914</ele>
        <time>2022-10-08T10:03:11Z</time>
      </trkpt>
      <trkpt lat="42.57723" lon="2.45456">
        <ele>917</ele>
        <time>2022-10-08T10:03:44Z</time>
      </trkpt>
      <trkpt lat="42.57719" lon="2.45458">
        <ele>920</ele>
        <time>2022-10-08T10:03:49Z</time>
      </trkpt>
      <trkpt lat="42.57719" lon="2.45471">
        <ele>919</ele>
        <time>2022-10-08T10:04:02Z</time>
      </trkpt>
      <trkpt lat="42.57715" lon="2.45469">
        <ele>922</ele>
        <time>2022-10-08T10:04:08Z</time>
      </trkpt>
      <trkpt lat="42.57709" lon="2.45456">
        <ele>928</ele>
        <time>2022-10-08T10:04:23Z</time>
      </trkpt>
      <trkpt lat="42.57705" lon="2.45461">
        <ele>930</ele>
        <time>2022-10-08T10:04:30Z</time>
      </trkpt>
      <trkpt lat="42.57702" lon="2.45475">
        <ele>932</ele>
        <time>2022-10-08T10:04:44Z</time>
      </trkpt>
      <trkpt lat="42.577" lon="2.45456">
        <ele>934</ele>
        <time>2022-10-08T10:05:03Z</time>
      </trkpt>
      <trkpt lat="42.57702" lon="2.45437">
        <ele>934</ele>
        <time>2022-10-08T10:05:22Z</time>
      </trkpt>
      <trkpt lat="42.577" lon="2.45405">
        <ele>938</ele>
        <time>2022-10-08T10:05:54Z</time>
      </trkpt>
      <trkpt lat="42.57697" lon="2.45393">
        <ele>941</ele>
        <time>2022-10-08T10:06:06Z</time>
      </trkpt>
      <trkpt lat="42.577" lon="2.45381">
        <ele>939</ele>
        <time>2022-10-08T10:06:19Z</time>
      </trkpt>
      <trkpt lat="42.57698" lon="2.45374">
        <ele>941</ele>
        <time>2022-10-08T10:06:26Z</time>
      </trkpt>
      <trkpt lat="42.57699" lon="2.45363">
        <ele>941</ele>
        <time>2022-10-08T10:06:37Z</time>
      </trkpt>
      <trkpt lat="42.57705" lon="2.45341">
        <ele>939</ele>
        <time>2022-10-08T10:07:00Z</time>
      </trkpt>
      <trkpt lat="42.57704" lon="2.45299">
        <ele>934</ele>
        <time>2022-10-08T10:07:41Z</time>
      </trkpt>
      <trkpt lat="42.57701" lon="2.45301">
        <ele>936</ele>
        <time>2022-10-08T10:07:46Z</time>
      </trkpt>
      <trkpt lat="42.577" lon="2.45311">
        <ele>938</ele>
        <time>2022-10-08T10:07:56Z</time>
      </trkpt>
      <trkpt lat="42.57694" lon="2.45326">
        <ele>944</ele>
        <time>2022-10-08T10:08:12Z</time>
      </trkpt>
      <trkpt lat="42.57696" lon="2.45327">
        <ele>943</ele>
        <time>2022-10-08T10:08:15Z</time>
      </trkpt>
      <trkpt lat="42.5767" lon="2.45379">
        <ele>960</ele>
        <time>2022-10-08T10:09:17Z</time>
      </trkpt>
      <trkpt lat="42.57665" lon="2.45402">
        <ele>963</ele>
        <time>2022-10-08T10:09:41Z</time>
      </trkpt>
      <trkpt lat="42.57669" lon="2.45406">
        <ele>960</ele>
        <time>2022-10-08T10:09:47Z</time>
      </trkpt>
      <trkpt lat="42.57664" lon="2.45415">
        <ele>964</ele>
        <time>2022-10-08T10:09:58Z</time>
      </trkpt>
      <trkpt lat="42.57661" lon="2.45405">
        <ele>966</ele>
        <time>2022-10-08T10:10:09Z</time>
      </trkpt>
      <trkpt lat="42.57662" lon="2.45393">
        <ele>965</ele>
        <time>2022-10-08T10:10:21Z</time>
      </trkpt>
      <trkpt lat="42.57655" lon="2.45352">
        <ele>968</ele>
        <time>2022-10-08T10:11:02Z</time>
      </trkpt>
      <trkpt lat="42.57658" lon="2.45326">
        <ele>964</ele>
        <time>2022-10-08T10:11:28Z</time>
      </trkpt>
      <trkpt lat="42.57643" lon="2.45376">
        <ele>976</ele>
        <time>2022-10-08T10:12:21Z</time>
      </trkpt>
      <trkpt lat="42.57636" lon="2.4542">
        <ele>983</ele>
        <time>2022-10-08T10:13:05Z</time>
      </trkpt>
      <trkpt lat="42.57632" lon="2.45429">
        <ele>985</ele>
        <time>2022-10-08T10:13:16Z</time>
      </trkpt>
      <trkpt lat="42.57633" lon="2.45444">
        <ele>984</ele>
        <time>2022-10-08T10:13:30Z</time>
      </trkpt>
      <trkpt lat="42.57626" lon="2.45451">
        <ele>988</ele>
        <time>2022-10-08T10:13:42Z</time>
      </trkpt>
      <trkpt lat="42.57612" lon="2.45476">
        <ele>997</ele>
        <time>2022-10-08T10:14:13Z</time>
      </trkpt>
      <trkpt lat="42.57601" lon="2.45482">
        <ele>1004</ele>
        <time>2022-10-08T10:14:29Z</time>
      </trkpt>
      <trkpt lat="42.57586" lon="2.45503">
        <ele>1014</ele>
        <time>2022-10-08T10:14:57Z</time>
      </trkpt>
      <trkpt lat="42.57582" lon="2.45516">
        <ele>1017</ele>
        <time>2022-10-08T10:15:11Z</time>
      </trkpt>
      <trkpt lat="42.5758" lon="2.4553">
        <ele>1019</ele>
        <time>2022-10-08T10:15:25Z</time>
      </trkpt>
      <trkpt lat="42.57584" lon="2.45576">
        <ele>1018</ele>
        <time>2022-10-08T10:16:11Z</time>
      </trkpt>
      <trkpt lat="42.57597" lon="2.45629">
        <ele>1017</ele>
        <time>2022-10-08T10:17:06Z</time>
      </trkpt>
      <trkpt lat="42.57602" lon="2.45639">
        <ele>1015</ele>
        <time>2022-10-08T10:17:18Z</time>
      </trkpt>
      <trkpt lat="42.57604" lon="2.45653">
        <ele>1016</ele>
        <time>2022-10-08T10:17:32Z</time>
      </trkpt>
      <trkpt lat="42.57599" lon="2.45664">
        <ele>1021</ele>
        <time>2022-10-08T10:17:44Z</time>
      </trkpt>
      <trkpt lat="42.57593" lon="2.45694">
        <ele>1021</ele>
        <time>2022-10-08T10:18:15Z</time>
      </trkpt>
      <trkpt lat="42.57578" lon="2.45716">
        <ele>1028</ele>
        <time>2022-10-08T10:18:44Z</time>
      </trkpt>
      <trkpt lat="42.57578" lon="2.45723">
        <ele>1027</ele>
        <time>2022-10-08T10:18:51Z</time>
      </trkpt>
      <trkpt lat="42.57546" lon="2.45751">
        <ele>1044</ele>
        <time>2022-10-08T10:19:42Z</time>
      </trkpt>
      <trkpt lat="42.57532" lon="2.45769">
        <ele>1049</ele>
        <time>2022-10-08T10:20:08Z</time>
      </trkpt>
      <trkpt lat="42.57523" lon="2.45774">
        <ele>1053</ele>
        <time>2022-10-08T10:20:21Z</time>
      </trkpt>
      <trkpt lat="42.57506" lon="2.45796">
        <ele>1057</ele>
        <time>2022-10-08T10:20:52Z</time>
      </trkpt>
      <trkpt lat="42.57495" lon="2.4582">
        <ele>1056</ele>
        <time>2022-10-08T10:21:20Z</time>
      </trkpt>
      <trkpt lat="42.57471" lon="2.45847">
        <ele>1067</ele>
        <time>2022-10-08T10:22:01Z</time>
      </trkpt>
      <trkpt lat="42.57465" lon="2.45858">
        <ele>1070</ele>
        <time>2022-10-08T10:22:15Z</time>
      </trkpt>
      <trkpt lat="42.57451" lon="2.45872">
        <ele>1079</ele>
        <time>2022-10-08T10:22:38Z</time>
      </trkpt>
      <trkpt lat="42.57444" lon="2.45872">
        <ele>1083</ele>
        <time>2022-10-08T10:22:47Z</time>
      </trkpt>
      <trkpt lat="42.57444" lon="2.45884">
        <ele>1083</ele>
        <time>2022-10-08T10:22:59Z</time>
      </trkpt>
      <trkpt lat="42.57448" lon="2.459">
        <ele>1080</ele>
        <time>2022-10-08T10:23:16Z</time>
      </trkpt>
      <trkpt lat="42.57456" lon="2.45924">
        <ele>1077</ele>
        <time>2022-10-08T10:23:42Z</time>
      </trkpt>
      <trkpt lat="42.57461" lon="2.45932">
        <ele>1077</ele>
        <time>2022-10-08T10:23:52Z</time>
      </trkpt>
      <trkpt lat="42.5749" lon="2.45958">
        <ele>1069</ele>
        <time>2022-10-08T10:24:38Z</time>
      </trkpt>
      <trkpt lat="42.5752" lon="2.45978">
        <ele>1064</ele>
        <time>2022-10-08T10:25:23Z</time>
      </trkpt>
      <trkpt lat="42.5753" lon="2.4599">
        <ele>1065</ele>
        <time>2022-10-08T10:25:41Z</time>
      </trkpt>
      <trkpt lat="42.57573" lon="2.46029">
        <ele>1062</ele>
        <time>2022-10-08T10:26:50Z</time>
      </trkpt>
      <trkpt lat="42.5761" lon="2.46057">
        <ele>1059</ele>
        <time>2022-10-08T10:27:46Z</time>
      </trkpt>
      <trkpt lat="42.57645" lon="2.46118">
        <ele>1057</ele>
        <time>2022-10-08T10:29:02Z</time>
      </trkpt>
      <trkpt lat="42.57651" lon="2.46119">
        <ele>1056</ele>
        <time>2022-10-08T10:29:10Z</time>
      </trkpt>
      <trkpt lat="42.57648" lon="2.46117">
        <ele>1057</ele>
        <time>2022-10-08T10:29:15Z</time>
      </trkpt>
      <trkpt lat="42.57652" lon="2.46122">
        <ele>1055</ele>
        <time>2022-10-08T10:29:22Z</time>
      </trkpt>
      <trkpt lat="42.57664" lon="2.46099">
        <ele>1056</ele>
        <time>2022-10-08T10:29:50Z</time>
      </trkpt>
      <trkpt lat="42.57669" lon="2.46084">
        <ele>1056</ele>
        <time>2022-10-08T10:30:06Z</time>
      </trkpt>
      <trkpt lat="42.57682" lon="2.46067">
        <ele>1047</ele>
        <time>2022-10-08T10:30:30Z</time>
      </trkpt>
      <trkpt lat="42.577" lon="2.46069">
        <ele>1044</ele>
        <time>2022-10-08T10:30:54Z</time>
      </trkpt>
      <trkpt lat="42.57709" lon="2.46088">
        <ele>1047</ele>
        <time>2022-10-08T10:31:16Z</time>
      </trkpt>
      <trkpt lat="42.577" lon="2.46073">
        <ele>1046</ele>
        <time>2022-10-08T10:31:35Z</time>
      </trkpt>
      <trkpt lat="42.57681" lon="2.46072">
        <ele>1050</ele>
        <time>2022-10-08T10:32:01Z</time>
      </trkpt>
      <trkpt lat="42.57672" lon="2.46083">
        <ele>1056</ele>
        <time>2022-10-08T10:32:17Z</time>
      </trkpt>
      <trkpt lat="42.57659" lon="2.4611">
        <ele>1055</ele>
        <time>2022-10-08T10:32:49Z</time>
      </trkpt>
      <trkpt lat="42.57654" lon="2.46123">
        <ele>1055</ele>
        <time>2022-10-08T10:33:03Z</time>
      </trkpt>
      <trkpt lat="42.57657" lon="2.46126">
        <ele>1054</ele>
        <time>2022-10-08T10:33:08Z</time>
      </trkpt>
      <trkpt lat="42.57656" lon="2.46128">
        <ele>1054</ele>
        <time>2022-10-08T10:33:10Z</time>
      </trkpt>
      <trkpt lat="42.57665" lon="2.46136">
        <ele>1052</ele>
        <time>2022-10-08T10:33:25Z</time>
      </trkpt>
      <trkpt lat="42.57699" lon="2.46149">
        <ele>1044</ele>
        <time>2022-10-08T10:34:12Z</time>
      </trkpt>
      <trkpt lat="42.57711" lon="2.46162">
        <ele>1041</ele>
        <time>2022-10-08T10:34:32Z</time>
      </trkpt>
      <trkpt lat="42.57718" lon="2.46155">
        <ele>1041</ele>
        <time>2022-10-08T10:34:44Z</time>
      </trkpt>
      <trkpt lat="42.57726" lon="2.46153">
        <ele>1039</ele>
        <time>2022-10-08T10:34:55Z</time>
      </trkpt>
      <trkpt lat="42.57732" lon="2.46147">
        <ele>1039</ele>
        <time>2022-10-08T10:35:05Z</time>
      </trkpt>
      <trkpt lat="42.57733" lon="2.46149">
        <ele>1038</ele>
        <time>2022-10-08T10:35:07Z</time>
      </trkpt>
      <trkpt lat="42.57725" lon="2.46154">
        <ele>1040</ele>
        <time>2022-10-08T10:35:19Z</time>
      </trkpt>
      <trkpt lat="42.57727" lon="2.46177">
        <ele>1036</ele>
        <time>2022-10-08T10:35:42Z</time>
      </trkpt>
      <trkpt lat="42.57729" lon="2.4618">
        <ele>1035</ele>
        <time>2022-10-08T10:35:46Z</time>
      </trkpt>
      <trkpt lat="42.57741" lon="2.46173">
        <ele>1035</ele>
        <time>2022-10-08T10:36:03Z</time>
      </trkpt>
      <trkpt lat="42.57732" lon="2.46183">
        <ele>1034</ele>
        <time>2022-10-08T10:36:19Z</time>
      </trkpt>
      <trkpt lat="42.57738" lon="2.46192">
        <ele>1032</ele>
        <time>2022-10-08T10:36:30Z</time>
      </trkpt>
      <trkpt lat="42.57763" lon="2.4619">
        <ele>1025</ele>
        <time>2022-10-08T10:37:04Z</time>
      </trkpt>
      <trkpt lat="42.57768" lon="2.46197">
        <ele>1022</ele>
        <time>2022-10-08T10:37:13Z</time>
      </trkpt>
      <trkpt lat="42.57771" lon="2.46219">
        <ele>1019</ele>
        <time>2022-10-08T10:37:35Z</time>
      </trkpt>
      <trkpt lat="42.57774" lon="2.46226">
        <ele>1018</ele>
        <time>2022-10-08T10:37:43Z</time>
      </trkpt>
      <trkpt lat="42.57771" lon="2.46219">
        <ele>1019</ele>
        <time>2022-10-08T10:37:51Z</time>
      </trkpt>
      <trkpt lat="42.57774" lon="2.46211">
        <ele>1019</ele>
        <time>2022-10-08T10:38:00Z</time>
      </trkpt>
      <trkpt lat="42.57761" lon="2.46189">
        <ele>1026</ele>
        <time>2022-10-08T10:38:28Z</time>
      </trkpt>
      <trkpt lat="42.57764" lon="2.46138">
        <ele>1028</ele>
        <time>2022-10-08T10:39:18Z</time>
      </trkpt>
      <trkpt lat="42.57771" lon="2.46111">
        <ele>1024</ele>
        <time>2022-10-08T10:39:46Z</time>
      </trkpt>
      <trkpt lat="42.57779" lon="2.46093">
        <ele>1020</ele>
        <time>2022-10-08T10:40:07Z</time>
      </trkpt>
      <trkpt lat="42.57781" lon="2.46071">
        <ele>1016</ele>
        <time>2022-10-08T10:40:29Z</time>
      </trkpt>
      <trkpt lat="42.57785" lon="2.4606">
        <ele>1012</ele>
        <time>2022-10-08T10:40:41Z</time>
      </trkpt>
      <trkpt lat="42.57785" lon="2.46041">
        <ele>1009</ele>
        <time>2022-10-08T10:40:59Z</time>
      </trkpt>
      <trkpt lat="42.5778" lon="2.46014">
        <ele>1006</ele>
        <time>2022-10-08T10:41:27Z</time>
      </trkpt>
      <trkpt lat="42.57784" lon="2.46013">
        <ele>1005</ele>
        <time>2022-10-08T10:41:32Z</time>
      </trkpt>
      <trkpt lat="42.57792" lon="2.46018">
        <ele>1002</ele>
        <time>2022-10-08T10:41:44Z</time>
      </trkpt>
      <trkpt lat="42.578" lon="2.46017">
        <ele>999</ele>
        <time>2022-10-08T10:41:55Z</time>
      </trkpt>
      <trkpt lat="42.57804" lon="2.46022">
        <ele>998</ele>
        <time>2022-10-08T10:42:02Z</time>
      </trkpt>
      <trkpt lat="42.57802" lon="2.46023">
        <ele>999</ele>
        <time>2022-10-08T10:42:05Z</time>
      </trkpt>
      <trkpt lat="42.57805" lon="2.46017">
        <ele>998</ele>
        <time>2022-10-08T10:42:12Z</time>
      </trkpt>
      <trkpt lat="42.57805" lon="2.46025">
        <ele>998</ele>
        <time>2022-10-08T10:42:20Z</time>
      </trkpt>
      <trkpt lat="42.57806" lon="2.46022">
        <ele>998</ele>
        <time>2022-10-08T10:42:23Z</time>
      </trkpt>
      <trkpt lat="42.5779" lon="2.45994">
        <ele>998</ele>
        <time>2022-10-08T10:42:58Z</time>
      </trkpt>
      <trkpt lat="42.57778" lon="2.45984">
        <ele>997</ele>
        <time>2022-10-08T10:43:17Z</time>
      </trkpt>
      <trkpt lat="42.57785" lon="2.45981">
        <ele>994</ele>
        <time>2022-10-08T10:43:26Z</time>
      </trkpt>
      <trkpt lat="42.57798" lon="2.45985">
        <ele>992</ele>
        <time>2022-10-08T10:43:44Z</time>
      </trkpt>
      <trkpt lat="42.57808" lon="2.45991">
        <ele>992</ele>
        <time>2022-10-08T10:43:59Z</time>
      </trkpt>
      <trkpt lat="42.57835" lon="2.45996">
        <ele>985</ele>
        <time>2022-10-08T10:44:35Z</time>
      </trkpt>
      <trkpt lat="42.5784" lon="2.46003">
        <ele>984</ele>
        <time>2022-10-08T10:44:45Z</time>
      </trkpt>
      <trkpt lat="42.57841" lon="2.46014">
        <ele>983</ele>
        <time>2022-10-08T10:44:56Z</time>
      </trkpt>
      <trkpt lat="42.57836" lon="2.46037">
        <ele>986</ele>
        <time>2022-10-08T10:45:19Z</time>
      </trkpt>
      <trkpt lat="42.57836" lon="2.46072">
        <ele>985</ele>
        <time>2022-10-08T10:45:54Z</time>
      </trkpt>
      <trkpt lat="42.5784" lon="2.46129">
        <ele>984</ele>
        <time>2022-10-08T10:46:50Z</time>
      </trkpt>
      <trkpt lat="42.57845" lon="2.46149">
        <ele>981</ele>
        <time>2022-10-08T10:47:11Z</time>
      </trkpt>
      <trkpt lat="42.57864" lon="2.46195">
        <ele>972</ele>
        <time>2022-10-08T10:48:02Z</time>
      </trkpt>
      <trkpt lat="42.57865" lon="2.46211">
        <ele>974</ele>
        <time>2022-10-08T10:48:18Z</time>
      </trkpt>
      <trkpt lat="42.57874" lon="2.46245">
        <ele>973</ele>
        <time>2022-10-08T10:48:54Z</time>
      </trkpt>
      <trkpt lat="42.57892" lon="2.46289">
        <ele>955</ele>
        <time>2022-10-08T10:49:43Z</time>
      </trkpt>
      <trkpt lat="42.57899" lon="2.46298">
        <ele>949</ele>
        <time>2022-10-08T10:49:56Z</time>
      </trkpt>
      <trkpt lat="42.57902" lon="2.46274">
        <ele>949</ele>
        <time>2022-10-08T10:50:20Z</time>
      </trkpt>
      <trkpt lat="42.57911" lon="2.46268">
        <ele>943</ele>
        <time>2022-10-08T10:50:33Z</time>
      </trkpt>
      <trkpt lat="42.57914" lon="2.46262">
        <ele>941</ele>
        <time>2022-10-08T10:50:40Z</time>
      </trkpt>
      <trkpt lat="42.57921" lon="2.46262">
        <ele>937</ele>
        <time>2022-10-08T10:50:50Z</time>
      </trkpt>
      <trkpt lat="42.57933" lon="2.46287">
        <ele>929</ele>
        <time>2022-10-08T10:51:19Z</time>
      </trkpt>
      <trkpt lat="42.57942" lon="2.46299">
        <ele>924</ele>
        <time>2022-10-08T10:51:36Z</time>
      </trkpt>
      <trkpt lat="42.57947" lon="2.46312">
        <ele>921</ele>
        <time>2022-10-08T10:51:50Z</time>
      </trkpt>
      <trkpt lat="42.57944" lon="2.46328">
        <ele>922</ele>
        <time>2022-10-08T10:52:07Z</time>
      </trkpt>
      <trkpt lat="42.57949" lon="2.46327">
        <ele>919</ele>
        <time>2022-10-08T10:52:13Z</time>
      </trkpt>
      <trkpt lat="42.57958" lon="2.46307">
        <ele>915</ele>
        <time>2022-10-08T10:52:36Z</time>
      </trkpt>
      <trkpt lat="42.57958" lon="2.46281">
        <ele>915</ele>
        <time>2022-10-08T10:53:02Z</time>
      </trkpt>
      <trkpt lat="42.57974" lon="2.46286">
        <ele>906</ele>
        <time>2022-10-08T10:53:24Z</time>
      </trkpt>
      <trkpt lat="42.57988" lon="2.46306">
        <ele>898</ele>
        <time>2022-10-08T10:53:51Z</time>
      </trkpt>
      <trkpt lat="42.57992" lon="2.46319">
        <ele>896</ele>
        <time>2022-10-08T10:54:05Z</time>
      </trkpt>
      <trkpt lat="42.57998" lon="2.46319">
        <ele>893</ele>
        <time>2022-10-08T10:54:13Z</time>
      </trkpt>
      <trkpt lat="42.57996" lon="2.46291">
        <ele>894</ele>
        <time>2022-10-08T10:54:40Z</time>
      </trkpt>
      <trkpt lat="42.58007" lon="2.46303">
        <ele>890</ele>
        <time>2022-10-08T10:54:59Z</time>
      </trkpt>
      <trkpt lat="42.58007" lon="2.46284">
        <ele>889</ele>
        <time>2022-10-08T10:55:18Z</time>
      </trkpt>
      <trkpt lat="42.58013" lon="2.46279">
        <ele>887</ele>
        <time>2022-10-08T10:55:27Z</time>
      </trkpt>
      <trkpt lat="42.58033" lon="2.46306">
        <ele>882</ele>
        <time>2022-10-08T10:56:05Z</time>
      </trkpt>
      <trkpt lat="42.5804" lon="2.46328">
        <ele>882</ele>
        <time>2022-10-08T10:56:29Z</time>
      </trkpt>
      <trkpt lat="42.58042" lon="2.46347">
        <ele>879</ele>
        <time>2022-10-08T10:56:47Z</time>
      </trkpt>
      <trkpt lat="42.58067" lon="2.46357">
        <ele>872</ele>
        <time>2022-10-08T10:57:22Z</time>
      </trkpt>
      <trkpt lat="42.58083" lon="2.46348">
        <ele>871</ele>
        <time>2022-10-08T10:57:45Z</time>
      </trkpt>
      <trkpt lat="42.58087" lon="2.46359">
        <ele>868</ele>
        <time>2022-10-08T10:57:57Z</time>
      </trkpt>
      <trkpt lat="42.5809" lon="2.46386">
        <ele>864</ele>
        <time>2022-10-08T10:58:24Z</time>
      </trkpt>
      <trkpt lat="42.58098" lon="2.46416">
        <ele>858</ele>
        <time>2022-10-08T10:58:56Z</time>
      </trkpt>
      <trkpt lat="42.58109" lon="2.4644">
        <ele>850</ele>
        <time>2022-10-08T10:59:23Z</time>
      </trkpt>
      <trkpt lat="42.58108" lon="2.4648">
        <ele>844</ele>
        <time>2022-10-08T11:00:03Z</time>
      </trkpt>
      <trkpt lat="42.58113" lon="2.46498">
        <ele>840</ele>
        <time>2022-10-08T11:00:22Z</time>
      </trkpt>
      <trkpt lat="42.58122" lon="2.46472">
        <ele>841</ele>
        <time>2022-10-08T11:00:50Z</time>
      </trkpt>
      <trkpt lat="42.58127" lon="2.46442">
        <ele>843</ele>
        <time>2022-10-08T11:01:20Z</time>
      </trkpt>
      <trkpt lat="42.58128" lon="2.46399">
        <ele>847</ele>
        <time>2022-10-08T11:02:02Z</time>
      </trkpt>
      <trkpt lat="42.58136" lon="2.46344">
        <ele>847</ele>
        <time>2022-10-08T11:02:57Z</time>
      </trkpt>
      <trkpt lat="42.58148" lon="2.46322">
        <ele>842</ele>
        <time>2022-10-08T11:03:24Z</time>
      </trkpt>
      <trkpt lat="42.58165" lon="2.46306">
        <ele>835</ele>
        <time>2022-10-08T11:03:52Z</time>
      </trkpt>
      <trkpt lat="42.58181" lon="2.46275">
        <ele>826</ele>
        <time>2022-10-08T11:04:29Z</time>
      </trkpt>
      <trkpt lat="42.58181" lon="2.46235">
        <ele>822</ele>
        <time>2022-10-08T11:05:08Z</time>
      </trkpt>
      <trkpt lat="42.58176" lon="2.46195">
        <ele>812</ele>
        <time>2022-10-08T11:05:48Z</time>
      </trkpt>
      <trkpt lat="42.58192" lon="2.46216">
        <ele>811</ele>
        <time>2022-10-08T11:06:18Z</time>
      </trkpt>
      <trkpt lat="42.5821" lon="2.46276">
        <ele>811</ele>
        <time>2022-10-08T11:07:22Z</time>
      </trkpt>
      <trkpt lat="42.5822" lon="2.463">
        <ele>805</ele>
        <time>2022-10-08T11:07:49Z</time>
      </trkpt>
      <trkpt lat="42.58216" lon="2.46326">
        <ele>806</ele>
        <time>2022-10-08T11:08:15Z</time>
      </trkpt>
      <trkpt lat="42.58207" lon="2.46355">
        <ele>810</ele>
        <time>2022-10-08T11:08:46Z</time>
      </trkpt>
      <trkpt lat="42.58208" lon="2.46377">
        <ele>809</ele>
        <time>2022-10-08T11:09:07Z</time>
      </trkpt>
      <trkpt lat="42.58235" lon="2.46478">
        <ele>795</ele>
        <time>2022-10-08T11:10:53Z</time>
      </trkpt>
      <trkpt lat="42.58238" lon="2.46478">
        <ele>793</ele>
        <time>2022-10-08T11:10:57Z</time>
      </trkpt>
      <trkpt lat="42.58242" lon="2.46462">
        <ele>791</ele>
        <time>2022-10-08T11:11:14Z</time>
      </trkpt>
      <trkpt lat="42.58245" lon="2.46439">
        <ele>788</ele>
        <time>2022-10-08T11:11:36Z</time>
      </trkpt>
      <trkpt lat="42.58246" lon="2.46389">
        <ele>788</ele>
        <time>2022-10-08T11:12:26Z</time>
      </trkpt>
      <trkpt lat="42.58253" lon="2.4636">
        <ele>785</ele>
        <time>2022-10-08T11:12:56Z</time>
      </trkpt>
      <trkpt lat="42.58277" lon="2.46317">
        <ele>773</ele>
        <time>2022-10-08T11:13:49Z</time>
      </trkpt>
      <trkpt lat="42.58279" lon="2.46305">
        <ele>772</ele>
        <time>2022-10-08T11:14:01Z</time>
      </trkpt>
      <trkpt lat="42.58282" lon="2.46305">
        <ele>771</ele>
        <time>2022-10-08T11:14:05Z</time>
      </trkpt>
      <trkpt lat="42.58283" lon="2.46261">
        <ele>771</ele>
        <time>2022-10-08T11:14:48Z</time>
      </trkpt>
      <trkpt lat="42.58293" lon="2.46191">
        <ele>755</ele>
        <time>2022-10-08T11:15:58Z</time>
      </trkpt>
      <trkpt lat="42.58293" lon="2.46153">
        <ele>748</ele>
        <time>2022-10-08T11:16:35Z</time>
      </trkpt>
      <trkpt lat="42.58284" lon="2.46115">
        <ele>745</ele>
        <time>2022-10-08T11:17:15Z</time>
      </trkpt>
      <trkpt lat="42.58277" lon="2.46097">
        <ele>745</ele>
        <time>2022-10-08T11:17:35Z</time>
      </trkpt>
      <trkpt lat="42.58266" lon="2.46045">
        <ele>739</ele>
        <time>2022-10-08T11:18:28Z</time>
      </trkpt>
      <trkpt lat="42.58215" lon="2.46009">
        <ele>748</ele>
        <time>2022-10-08T11:19:44Z</time>
      </trkpt>
      <trkpt lat="42.58211" lon="2.45996">
        <ele>747</ele>
        <time>2022-10-08T11:19:58Z</time>
      </trkpt>
      <trkpt lat="42.58213" lon="2.4597">
        <ele>744</ele>
        <time>2022-10-08T11:20:24Z</time>
      </trkpt>
      <trkpt lat="42.58221" lon="2.45947">
        <ele>738</ele>
        <time>2022-10-08T11:20:49Z</time>
      </trkpt>
      <trkpt lat="42.58228" lon="2.45901">
        <ele>730</ele>
        <time>2022-10-08T11:21:35Z</time>
      </trkpt>
      <trkpt lat="42.58224" lon="2.45881">
        <ele>732</ele>
        <time>2022-10-08T11:21:56Z</time>
      </trkpt>
      <trkpt lat="42.58231" lon="2.45863">
        <ele>728</ele>
        <time>2022-10-08T11:22:16Z</time>
      </trkpt>
      <trkpt lat="42.5824" lon="2.45848">
        <ele>723</ele>
        <time>2022-10-08T11:22:35Z</time>
      </trkpt>
      <trkpt lat="42.58253" lon="2.45833">
        <ele>716</ele>
        <time>2022-10-08T11:22:57Z</time>
      </trkpt>
      <trkpt lat="42.58244" lon="2.45872">
        <ele>722</ele>
        <time>2022-10-08T11:23:37Z</time>
      </trkpt>
      <trkpt lat="42.58259" lon="2.45945">
        <ele>720</ele>
        <time>2022-10-08T11:24:52Z</time>
      </trkpt>
      <trkpt lat="42.58265" lon="2.45952">
        <ele>719</ele>
        <time>2022-10-08T11:25:02Z</time>
      </trkpt>
      <trkpt lat="42.58284" lon="2.45948">
        <ele>711</ele>
        <time>2022-10-08T11:25:28Z</time>
      </trkpt>
      <trkpt lat="42.58299" lon="2.45964">
        <ele>708</ele>
        <time>2022-10-08T11:25:54Z</time>
      </trkpt>
      <trkpt lat="42.58309" lon="2.45982">
        <ele>708</ele>
        <time>2022-10-08T11:26:16Z</time>
      </trkpt>
      <trkpt lat="42.58307" lon="2.46013">
        <ele>715</ele>
        <time>2022-10-08T11:26:46Z</time>
      </trkpt>
      <trkpt lat="42.58318" lon="2.46053">
        <ele>717</ele>
        <time>2022-10-08T11:27:28Z</time>
      </trkpt>
      <trkpt lat="42.58332" lon="2.46086">
        <ele>715</ele>
        <time>2022-10-08T11:28:06Z</time>
      </trkpt>
      <trkpt lat="42.58349" lon="2.46154">
        <ele>718</ele>
        <time>2022-10-08T11:29:16Z</time>
      </trkpt>
      <trkpt lat="42.58364" lon="2.46185">
        <ele>717</ele>
        <time>2022-10-08T11:29:53Z</time>
      </trkpt>
      <trkpt lat="42.58383" lon="2.46213">
        <ele>714</ele>
        <time>2022-10-08T11:30:30Z</time>
      </trkpt>
      <trkpt lat="42.58396" lon="2.46237">
        <ele>713</ele>
        <time>2022-10-08T11:30:59Z</time>
      </trkpt>
      <trkpt lat="42.5842" lon="2.46262">
        <ele>707</ele>
        <time>2022-10-08T11:31:40Z</time>
      </trkpt>
      <trkpt lat="42.58422" lon="2.46272">
        <ele>707</ele>
        <time>2022-10-08T11:31:50Z</time>
      </trkpt>
      <trkpt lat="42.58443" lon="2.46292">
        <ele>704</ele>
        <time>2022-10-08T11:32:24Z</time>
      </trkpt>
      <trkpt lat="42.58449" lon="2.46294">
        <ele>703</ele>
        <time>2022-10-08T11:32:32Z</time>
      </trkpt>
      <trkpt lat="42.58447" lon="2.46291">
        <ele>703</ele>
        <time>2022-10-08T11:32:36Z</time>
      </trkpt>
      <trkpt lat="42.5844" lon="2.46306">
        <ele>705</ele>
        <time>2022-10-08T11:32:54Z</time>
      </trkpt>
      <trkpt lat="42.58437" lon="2.46306">
        <ele>706</ele>
        <time>2022-10-08T11:32:58Z</time>
      </trkpt>
      <trkpt lat="42.5844" lon="2.46304">
        <ele>705</ele>
        <time>2022-10-08T11:33:02Z</time>
      </trkpt>
      <trkpt lat="42.58456" lon="2.46309">
        <ele>702</ele>
        <time>2022-10-08T11:33:24Z</time>
      </trkpt>
      <trkpt lat="42.58459" lon="2.46306">
        <ele>701</ele>
        <time>2022-10-08T11:33:29Z</time>
      </trkpt>
      <trkpt lat="42.58461" lon="2.46307">
        <ele>701</ele>
        <time>2022-10-08T11:33:32Z</time>
      </trkpt>
      <trkpt lat="42.58462" lon="2.46301">
        <ele>700</ele>
        <time>2022-10-08T11:33:38Z</time>
      </trkpt>
      <trkpt lat="42.5846" lon="2.46306">
        <ele>701</ele>
        <time>2022-10-08T11:33:44Z</time>
      </trkpt>
      <trkpt lat="42.58462" lon="2.46308">
        <ele>701</ele>
        <time>2022-10-08T11:33:47Z</time>
      </trkpt>
      <trkpt lat="42.58461" lon="2.46296">
        <ele>700</ele>
        <time>2022-10-08T11:33:59Z</time>
      </trkpt>
      <trkpt lat="42.58461" lon="2.46307">
        <ele>701</ele>
        <time>2022-10-08T11:34:10Z</time>
      </trkpt>
      <trkpt lat="42.58461" lon="2.46304">
        <ele>701</ele>
        <time>2022-10-08T11:34:13Z</time>
      </trkpt>
      <trkpt lat="42.58459" lon="2.46305">
        <ele>701</ele>
        <time>2022-10-08T11:34:15Z</time>
      </trkpt>
      <trkpt lat="42.58462" lon="2.46304">
        <ele>701</ele>
        <time>2022-10-08T11:34:20Z</time>
      </trkpt>
      <trkpt lat="42.58463" lon="2.46306">
        <ele>700</ele>
        <time>2022-10-08T11:34:22Z</time>
      </trkpt>
      <trkpt lat="42.58461" lon="2.46305">
        <ele>701</ele>
        <time>2022-10-08T11:34:25Z</time>
      </trkpt>
      <trkpt lat="42.58465" lon="2.463">
        <ele>700</ele>
        <time>2022-10-08T11:34:32Z</time>
      </trkpt>
      <trkpt lat="42.58475" lon="2.46297">
        <ele>698</ele>
        <time>2022-10-08T11:34:46Z</time>
      </trkpt>
      <trkpt lat="42.58523" lon="2.463">
        <ele>693</ele>
        <time>2022-10-08T11:35:50Z</time>
      </trkpt>
      <trkpt lat="42.58534" lon="2.46298">
        <ele>694</ele>
        <time>2022-10-08T11:36:05Z</time>
      </trkpt>
      <trkpt lat="42.58539" lon="2.46301">
        <ele>694</ele>
        <time>2022-10-08T11:36:12Z</time>
      </trkpt>
      <trkpt lat="42.58561" lon="2.46304">
        <ele>694</ele>
        <time>2022-10-08T11:36:41Z</time>
      </trkpt>
      <trkpt lat="42.58587" lon="2.46285">
        <ele>695</ele>
        <time>2022-10-08T11:37:21Z</time>
      </trkpt>
      <trkpt lat="42.58608" lon="2.46285">
        <ele>697</ele>
        <time>2022-10-08T11:37:49Z</time>
      </trkpt>
      <trkpt lat="42.58612" lon="2.46288">
        <ele>698</ele>
        <time>2022-10-08T11:37:55Z</time>
      </trkpt>
      <trkpt lat="42.58618" lon="2.46288">
        <ele>698</ele>
        <time>2022-10-08T11:38:03Z</time>
      </trkpt>
      <trkpt lat="42.58621" lon="2.46279">
        <ele>699</ele>
        <time>2022-10-08T11:38:13Z</time>
      </trkpt>
      <trkpt lat="42.58625" lon="2.46277">
        <ele>699</ele>
        <time>2022-10-08T11:38:18Z</time>
      </trkpt>
      <trkpt lat="42.58645" lon="2.46282">
        <ele>701</ele>
        <time>2022-10-08T11:38:45Z</time>
      </trkpt>
      <trkpt lat="42.58656" lon="2.46289">
        <ele>702</ele>
        <time>2022-10-08T11:39:02Z</time>
      </trkpt>
      <trkpt lat="42.58673" lon="2.46287">
        <ele>702</ele>
        <time>2022-10-08T11:39:24Z</time>
      </trkpt>
      <trkpt lat="42.58693" lon="2.46291">
        <ele>700</ele>
        <time>2022-10-08T11:39:51Z</time>
      </trkpt>
      <trkpt lat="42.58703" lon="2.46289">
        <ele>699</ele>
        <time>2022-10-08T11:40:05Z</time>
      </trkpt>
      <trkpt lat="42.58718" lon="2.46293">
        <ele>698</ele>
        <time>2022-10-08T11:40:25Z</time>
      </trkpt>
      <trkpt lat="42.5872" lon="2.46301">
        <ele>698</ele>
        <time>2022-10-08T11:40:34Z</time>
      </trkpt>
      <trkpt lat="42.58727" lon="2.46311">
        <ele>697</ele>
        <time>2022-10-08T11:40:47Z</time>
      </trkpt>
      <trkpt lat="42.58734" lon="2.4631">
        <ele>697</ele>
        <time>2022-10-08T11:40:57Z</time>
      </trkpt>
      <trkpt lat="42.58739" lon="2.46318">
        <ele>697</ele>
        <time>2022-10-08T11:41:07Z</time>
      </trkpt>
      <trkpt lat="42.58748" lon="2.46323">
        <ele>696</ele>
        <time>2022-10-08T11:41:20Z</time>
      </trkpt>
      <trkpt lat="42.58753" lon="2.46324">
        <ele>695</ele>
        <time>2022-10-08T11:41:27Z</time>
      </trkpt>
      <trkpt lat="42.58759" lon="2.46321">
        <ele>695</ele>
        <time>2022-10-08T11:41:35Z</time>
      </trkpt>
      <trkpt lat="42.58789" lon="2.46331">
        <ele>691</ele>
        <time>2022-10-08T11:42:16Z</time>
      </trkpt>
      <trkpt lat="42.58801" lon="2.46331">
        <ele>689</ele>
        <time>2022-10-08T11:42:32Z</time>
      </trkpt>
      <trkpt lat="42.58804" lon="2.46335">
        <ele>689</ele>
        <time>2022-10-08T11:42:38Z</time>
      </trkpt>
      <trkpt lat="42.58809" lon="2.46336">
        <ele>688</ele>
        <time>2022-10-08T11:42:45Z</time>
      </trkpt>
      <trkpt lat="42.58821" lon="2.46369">
        <ele>687</ele>
        <time>2022-10-08T11:43:21Z</time>
      </trkpt>
      <trkpt lat="42.58827" lon="2.4637">
        <ele>686</ele>
        <time>2022-10-08T11:43:29Z</time>
      </trkpt>
      <trkpt lat="42.58838" lon="2.46377">
        <ele>685</ele>
        <time>2022-10-08T11:43:45Z</time>
      </trkpt>
      <trkpt lat="42.58844" lon="2.46441">
        <ele>682</ele>
        <time>2022-10-08T11:44:49Z</time>
      </trkpt>
      <trkpt lat="42.5885" lon="2.4647">
        <ele>678</ele>
        <time>2022-10-08T11:45:18Z</time>
      </trkpt>
      <trkpt lat="42.58857" lon="2.46477">
        <ele>677</ele>
        <time>2022-10-08T11:45:30Z</time>
      </trkpt>
      <trkpt lat="42.5887" lon="2.4647">
        <ele>676</ele>
        <time>2022-10-08T11:45:48Z</time>
      </trkpt>
      <trkpt lat="42.58894" lon="2.46443">
        <ele>676</ele>
        <time>2022-10-08T11:46:30Z</time>
      </trkpt>
      <trkpt lat="42.58906" lon="2.46436">
        <ele>675</ele>
        <time>2022-10-08T11:46:47Z</time>
      </trkpt>
      <trkpt lat="42.58935" lon="2.46433">
        <ele>668</ele>
        <time>2022-10-08T11:47:26Z</time>
      </trkpt>
      <trkpt lat="42.58961" lon="2.46434">
        <ele>661</ele>
        <time>2022-10-08T11:48:01Z</time>
      </trkpt>
      <trkpt lat="42.58982" lon="2.4637">
        <ele>650</ele>
        <time>2022-10-08T11:49:10Z</time>
      </trkpt>
      <trkpt lat="42.59005" lon="2.46354">
        <ele>642</ele>
        <time>2022-10-08T11:49:44Z</time>
      </trkpt>
      <trkpt lat="42.59008" lon="2.46365">
        <ele>643</ele>
        <time>2022-10-08T11:49:56Z</time>
      </trkpt>
      <trkpt lat="42.59016" lon="2.46374">
        <ele>642</ele>
        <time>2022-10-08T11:50:10Z</time>
      </trkpt>
      <trkpt lat="42.59029" lon="2.46364">
        <ele>638</ele>
        <time>2022-10-08T11:50:30Z</time>
      </trkpt>
      <trkpt lat="42.5905" lon="2.46363">
        <ele>633</ele>
        <time>2022-10-08T11:50:58Z</time>
      </trkpt>
      <trkpt lat="42.59065" lon="2.46351">
        <ele>628</ele>
        <time>2022-10-08T11:51:21Z</time>
      </trkpt>
      <trkpt lat="42.59079" lon="2.46353">
        <ele>625</ele>
        <time>2022-10-08T11:51:40Z</time>
      </trkpt>
      <trkpt lat="42.59125" lon="2.46383">
        <ele>618</ele>
        <time>2022-10-08T11:52:48Z</time>
      </trkpt>
      <trkpt lat="42.59132" lon="2.46382">
        <ele>617</ele>
        <time>2022-10-08T11:52:57Z</time>
      </trkpt>
      <trkpt lat="42.59148" lon="2.46355">
        <ele>613</ele>
        <time>2022-10-08T11:53:31Z</time>
      </trkpt>
      <trkpt lat="42.59156" lon="2.46348">
        <ele>611</ele>
        <time>2022-10-08T11:53:44Z</time>
      </trkpt>
      <trkpt lat="42.59171" lon="2.46347">
        <ele>609</ele>
        <time>2022-10-08T11:54:04Z</time>
      </trkpt>
      <trkpt lat="42.59177" lon="2.46343">
        <ele>609</ele>
        <time>2022-10-08T11:54:13Z</time>
      </trkpt>
      <trkpt lat="42.59192" lon="2.46324">
        <ele>606</ele>
        <time>2022-10-08T11:54:40Z</time>
      </trkpt>
      <trkpt lat="42.59207" lon="2.46323">
        <ele>605</ele>
        <time>2022-10-08T11:55:00Z</time>
      </trkpt>
      <trkpt lat="42.5922" lon="2.46318">
        <ele>603</ele>
        <time>2022-10-08T11:55:18Z</time>
      </trkpt>
      <trkpt lat="42.59234" lon="2.46333">
        <ele>606</ele>
        <time>2022-10-08T11:55:42Z</time>
      </trkpt>
      <trkpt lat="42.59249" lon="2.46341">
        <ele>607</ele>
        <time>2022-10-08T11:56:04Z</time>
      </trkpt>
      <trkpt lat="42.59247" lon="2.46352">
        <ele>609</ele>
        <time>2022-10-08T11:56:15Z</time>
      </trkpt>
      <trkpt lat="42.59253" lon="2.46374">
        <ele>613</ele>
        <time>2022-10-08T11:56:38Z</time>
      </trkpt>
      <trkpt lat="42.59265" lon="2.46382">
        <ele>617</ele>
        <time>2022-10-08T11:56:56Z</time>
      </trkpt>
      <trkpt lat="42.59276" lon="2.46418">
        <ele>625</ele>
        <time>2022-10-08T11:57:34Z</time>
      </trkpt>
      <trkpt lat="42.59292" lon="2.46448">
        <ele>624</ele>
        <time>2022-10-08T11:58:10Z</time>
      </trkpt>
      <trkpt lat="42.59313" lon="2.46456">
        <ele>628</ele>
        <time>2022-10-08T11:58:39Z</time>
      </trkpt>
      <trkpt lat="42.59325" lon="2.46454">
        <ele>631</ele>
        <time>2022-10-08T11:58:56Z</time>
      </trkpt>
      <trkpt lat="42.59329" lon="2.46447">
        <ele>633</ele>
        <time>2022-10-08T11:59:04Z</time>
      </trkpt>
      <trkpt lat="42.59338" lon="2.46439">
        <ele>635</ele>
        <time>2022-10-08T11:59:19Z</time>
      </trkpt>
      <trkpt lat="42.59345" lon="2.46423">
        <ele>638</ele>
        <time>2022-10-08T11:59:37Z</time>
      </trkpt>
      <trkpt lat="42.59362" lon="2.46414">
        <ele>638</ele>
        <time>2022-10-08T12:00:01Z</time>
      </trkpt>
      <trkpt lat="42.59381" lon="2.46389">
        <ele>634</ele>
        <time>2022-10-08T12:00:37Z</time>
      </trkpt>
      <trkpt lat="42.59393" lon="2.4638">
        <ele>634</ele>
        <time>2022-10-08T12:00:55Z</time>
      </trkpt>
      <trkpt lat="42.59408" lon="2.46371">
        <ele>633</ele>
        <time>2022-10-08T12:01:17Z</time>
      </trkpt>
      <trkpt lat="42.59434" lon="2.46369">
        <ele>630</ele>
        <time>2022-10-08T12:01:51Z</time>
      </trkpt>
      <trkpt lat="42.59448" lon="2.46363">
        <ele>628</ele>
        <time>2022-10-08T12:02:11Z</time>
      </trkpt>
      <trkpt lat="42.59451" lon="2.46364">
        <ele>627</ele>
        <time>2022-10-08T12:02:15Z</time>
      </trkpt>
      <trkpt lat="42.59465" lon="2.4635">
        <ele>626</ele>
        <time>2022-10-08T12:02:38Z</time>
      </trkpt>
      <trkpt lat="42.5948" lon="2.46348">
        <ele>624</ele>
        <time>2022-10-08T12:02:58Z</time>
      </trkpt>
      <trkpt lat="42.59485" lon="2.46352">
        <ele>623</ele>
        <time>2022-10-08T12:03:06Z</time>
      </trkpt>
      <trkpt lat="42.5949" lon="2.46362">
        <ele>621</ele>
        <time>2022-10-08T12:03:18Z</time>
      </trkpt>
      <trkpt lat="42.59494" lon="2.46388">
        <ele>618</ele>
        <time>2022-10-08T12:03:44Z</time>
      </trkpt>
      <trkpt lat="42.59502" lon="2.46402">
        <ele>615</ele>
        <time>2022-10-08T12:04:02Z</time>
      </trkpt>
      <trkpt lat="42.5951" lon="2.4641">
        <ele>611</ele>
        <time>2022-10-08T12:04:15Z</time>
      </trkpt>
      <trkpt lat="42.59516" lon="2.46412">
        <ele>608</ele>
        <time>2022-10-08T12:04:23Z</time>
      </trkpt>
      <trkpt lat="42.59531" lon="2.46432">
        <ele>599</ele>
        <time>2022-10-08T12:04:51Z</time>
      </trkpt>
      <trkpt lat="42.59542" lon="2.46441">
        <ele>593</ele>
        <time>2022-10-08T12:05:08Z</time>
      </trkpt>
      <trkpt lat="42.59527" lon="2.46525">
        <ele>578</ele>
        <time>2022-10-08T12:06:33Z</time>
      </trkpt>
      <trkpt lat="42.59551" lon="2.46499">
        <ele>578</ele>
        <time>2022-10-08T12:07:14Z</time>
      </trkpt>
      <trkpt lat="42.59563" lon="2.4648">
        <ele>579</ele>
        <time>2022-10-08T12:07:39Z</time>
      </trkpt>
      <trkpt lat="42.59571" lon="2.46461">
        <ele>579</ele>
        <time>2022-10-08T12:08:00Z</time>
      </trkpt>
      <trkpt lat="42.59587" lon="2.46446">
        <ele>577</ele>
        <time>2022-10-08T12:08:26Z</time>
      </trkpt>
      <trkpt lat="42.59592" lon="2.46425">
        <ele>578</ele>
        <time>2022-10-08T12:08:48Z</time>
      </trkpt>
      <trkpt lat="42.59598" lon="2.46411">
        <ele>578</ele>
        <time>2022-10-08T12:09:04Z</time>
      </trkpt>
      <trkpt lat="42.59639" lon="2.46381">
        <ele>567</ele>
        <time>2022-10-08T12:10:06Z</time>
      </trkpt>
      <trkpt lat="42.59643" lon="2.46388">
        <ele>564</ele>
        <time>2022-10-08T12:10:15Z</time>
      </trkpt>
      <trkpt lat="42.59641" lon="2.46396">
        <ele>564</ele>
        <time>2022-10-08T12:10:23Z</time>
      </trkpt>
      <trkpt lat="42.59643" lon="2.46398">
        <ele>564</ele>
        <time>2022-10-08T12:10:26Z</time>
      </trkpt>
      <trkpt lat="42.59641" lon="2.46399">
        <ele>564</ele>
        <time>2022-10-08T12:10:29Z</time>
      </trkpt>
      <trkpt lat="42.59643" lon="2.46391">
        <ele>564</ele>
        <time>2022-10-08T12:10:37Z</time>
      </trkpt>
      <trkpt lat="42.59644" lon="2.46393">
        <ele>564</ele>
        <time>2022-10-08T12:10:40Z</time>
      </trkpt>
      <trkpt lat="42.59642" lon="2.4639">
        <ele>565</ele>
        <time>2022-10-08T12:10:44Z</time>
      </trkpt>
      <trkpt lat="42.59643" lon="2.46366">
        <ele>566</ele>
        <time>2022-10-08T12:11:07Z</time>
      </trkpt>
      <trkpt lat="42.59648" lon="2.46354">
        <ele>565</ele>
        <time>2022-10-08T12:11:21Z</time>
      </trkpt>
      <trkpt lat="42.59654" lon="2.4632">
        <ele>565</ele>
        <time>2022-10-08T12:11:55Z</time>
      </trkpt>
      <trkpt lat="42.59653" lon="2.46273">
        <ele>569</ele>
        <time>2022-10-08T12:12:41Z</time>
      </trkpt>
      <trkpt lat="42.59655" lon="2.46253">
        <ele>570</ele>
        <time>2022-10-08T12:13:01Z</time>
      </trkpt>
      <trkpt lat="42.59663" lon="2.46219">
        <ele>568</ele>
        <time>2022-10-08T12:13:36Z</time>
      </trkpt>
      <trkpt lat="42.59698" lon="2.46179">
        <ele>557</ele>
        <time>2022-10-08T12:14:37Z</time>
      </trkpt>
      <trkpt lat="42.59703" lon="2.46176">
        <ele>555</ele>
        <time>2022-10-08T12:14:45Z</time>
      </trkpt>
      <trkpt lat="42.59717" lon="2.46179">
        <ele>549</ele>
        <time>2022-10-08T12:15:04Z</time>
      </trkpt>
      <trkpt lat="42.59733" lon="2.46173">
        <ele>543</ele>
        <time>2022-10-08T12:15:26Z</time>
      </trkpt>
      <trkpt lat="42.59746" lon="2.46148">
        <ele>539</ele>
        <time>2022-10-08T12:15:56Z</time>
      </trkpt>
      <trkpt lat="42.59744" lon="2.46145">
        <ele>540</ele>
        <time>2022-10-08T12:16:00Z</time>
      </trkpt>
      <trkpt lat="42.59742" lon="2.46114">
        <ele>541</ele>
        <time>2022-10-08T12:16:30Z</time>
      </trkpt>
      <trkpt lat="42.59735" lon="2.46077">
        <ele>542</ele>
        <time>2022-10-08T12:17:08Z</time>
      </trkpt>
      <trkpt lat="42.59741" lon="2.46073">
        <ele>540</ele>
        <time>2022-10-08T12:17:17Z</time>
      </trkpt>
      <trkpt lat="42.59751" lon="2.46071">
        <ele>538</ele>
        <time>2022-10-08T12:17:30Z</time>
      </trkpt>
      <trkpt lat="42.59732" lon="2.4601">
        <ele>533</ele>
        <time>2022-10-08T12:18:35Z</time>
      </trkpt>
      <trkpt lat="42.59734" lon="2.45964">
        <ele>525</ele>
        <time>2022-10-08T12:19:21Z</time>
      </trkpt>
      <trkpt lat="42.59744" lon="2.4595">
        <ele>522</ele>
        <time>2022-10-08T12:19:40Z</time>
      </trkpt>
      <trkpt lat="42.59742" lon="2.45945">
        <ele>522</ele>
        <time>2022-10-08T12:19:45Z</time>
      </trkpt>
      <trkpt lat="42.59715" lon="2.4595">
        <ele>525</ele>
        <time>2022-10-08T12:20:22Z</time>
      </trkpt>
      <trkpt lat="42.59705" lon="2.4594">
        <ele>525</ele>
        <time>2022-10-08T12:20:38Z</time>
      </trkpt>
      <trkpt lat="42.59696" lon="2.45898">
        <ele>518</ele>
        <time>2022-10-08T12:21:21Z</time>
      </trkpt>
      <trkpt lat="42.5969" lon="2.45882">
        <ele>515</ele>
        <time>2022-10-08T12:21:39Z</time>
      </trkpt>
      <trkpt lat="42.59655" lon="2.45838">
        <ele>507</ele>
        <time>2022-10-08T12:22:43Z</time>
      </trkpt>
      <trkpt lat="42.59645" lon="2.45817">
        <ele>505</ele>
        <time>2022-10-08T12:23:07Z</time>
      </trkpt>
      <trkpt lat="42.59626" lon="2.45789">
        <ele>501</ele>
        <time>2022-10-08T12:23:45Z</time>
      </trkpt>
      <trkpt lat="42.59618" lon="2.4577">
        <ele>496</ele>
        <time>2022-10-08T12:24:06Z</time>
      </trkpt>
      <trkpt lat="42.59623" lon="2.45765">
        <ele>495</ele>
        <time>2022-10-08T12:24:14Z</time>
      </trkpt>
      <trkpt lat="42.59652" lon="2.45788">
        <ele>498</ele>
        <time>2022-10-08T12:24:59Z</time>
      </trkpt>
      <trkpt lat="42.59656" lon="2.45797">
        <ele>500</ele>
        <time>2022-10-08T12:25:09Z</time>
      </trkpt>
      <trkpt lat="42.59675" lon="2.45821">
        <ele>504</ele>
        <time>2022-10-08T12:25:44Z</time>
      </trkpt>
      <trkpt lat="42.59677" lon="2.45814">
        <ele>503</ele>
        <time>2022-10-08T12:25:51Z</time>
      </trkpt>
      <trkpt lat="42.59658" lon="2.45755">
        <ele>493</ele>
        <time>2022-10-08T12:26:55Z</time>
      </trkpt>
      <trkpt lat="42.59649" lon="2.45735">
        <ele>490</ele>
        <time>2022-10-08T12:27:18Z</time>
      </trkpt>
      <trkpt lat="42.59643" lon="2.45724">
        <ele>489</ele>
        <time>2022-10-08T12:27:31Z</time>
      </trkpt>
      <trkpt lat="42.59623" lon="2.45711">
        <ele>488</ele>
        <time>2022-10-08T12:28:01Z</time>
      </trkpt>
      <trkpt lat="42.59617" lon="2.45696">
        <ele>486</ele>
        <time>2022-10-08T12:28:18Z</time>
      </trkpt>
      <trkpt lat="42.59618" lon="2.45684">
        <ele>485</ele>
        <time>2022-10-08T12:28:29Z</time>
      </trkpt>
      <trkpt lat="42.59618" lon="2.4569">
        <ele>486</ele>
        <time>2022-10-08T12:28:35Z</time>
      </trkpt>
      <trkpt lat="42.59614" lon="2.45686">
        <ele>485</ele>
        <time>2022-10-08T12:28:42Z</time>
      </trkpt>
      <trkpt lat="42.59613" lon="2.45678">
        <ele>484</ele>
        <time>2022-10-08T12:28:50Z</time>
      </trkpt>
      <trkpt lat="42.59619" lon="2.45662">
        <ele>483</ele>
        <time>2022-10-08T12:29:08Z</time>
      </trkpt>
      <trkpt lat="42.59604" lon="2.45659">
        <ele>483</ele>
        <time>2022-10-08T12:29:28Z</time>
      </trkpt>
      <trkpt lat="42.59597" lon="2.45648">
        <ele>483</ele>
        <time>2022-10-08T12:29:42Z</time>
      </trkpt>
      <trkpt lat="42.59597" lon="2.45622">
        <ele>482</ele>
        <time>2022-10-08T12:30:08Z</time>
      </trkpt>
      <trkpt lat="42.5958" lon="2.45592">
        <ele>482</ele>
        <time>2022-10-08T12:30:45Z</time>
      </trkpt>
      <trkpt lat="42.59536" lon="2.45552">
        <ele>487</ele>
        <time>2022-10-08T12:31:55Z</time>
      </trkpt>
      <trkpt lat="42.59476" lon="2.45492">
        <ele>484</ele>
        <time>2022-10-08T12:33:35Z</time>
      </trkpt>
      <trkpt lat="42.59455" lon="2.45482">
        <ele>482</ele>
        <time>2022-10-08T12:34:05Z</time>
      </trkpt>
      <trkpt lat="42.59434" lon="2.45478">
        <ele>481</ele>
        <time>2022-10-08T12:34:33Z</time>
      </trkpt>
      <trkpt lat="42.59433" lon="2.45461">
        <ele>479</ele>
        <time>2022-10-08T12:34:50Z</time>
      </trkpt>
      <trkpt lat="42.59419" lon="2.45439">
        <ele>477</ele>
        <time>2022-10-08T12:35:18Z</time>
      </trkpt>
      <trkpt lat="42.59418" lon="2.45401">
        <ele>473</ele>
        <time>2022-10-08T12:35:56Z</time>
      </trkpt>
      <trkpt lat="42.59424" lon="2.45393">
        <ele>473</ele>
        <time>2022-10-08T12:36:07Z</time>
      </trkpt>
      <trkpt lat="42.59432" lon="2.45347">
        <ele>471</ele>
        <time>2022-10-08T12:36:53Z</time>
      </trkpt>
      <trkpt lat="42.59429" lon="2.45343">
        <ele>471</ele>
        <time>2022-10-08T12:36:59Z</time>
      </trkpt>
      <trkpt lat="42.59438" lon="2.45342">
        <ele>471</ele>
        <time>2022-10-08T12:37:11Z</time>
      </trkpt>
      <trkpt lat="42.59445" lon="2.45333">
        <ele>472</ele>
        <time>2022-10-08T12:37:24Z</time>
      </trkpt>
      <trkpt lat="42.59445" lon="2.45339">
        <ele>472</ele>
        <time>2022-10-08T12:37:30Z</time>
      </trkpt>
      <trkpt lat="42.59452" lon="2.4533">
        <ele>472</ele>
        <time>2022-10-08T12:37:42Z</time>
      </trkpt>
      <trkpt lat="42.59462" lon="2.45303">
        <ele>470</ele>
        <time>2022-10-08T12:38:12Z</time>
      </trkpt>
      <trkpt lat="42.59489" lon="2.45287">
        <ele>470</ele>
        <time>2022-10-08T12:38:51Z</time>
      </trkpt>
      <trkpt lat="42.59502" lon="2.45274">
        <ele>469</ele>
        <time>2022-10-08T12:39:13Z</time>
      </trkpt>
      <trkpt lat="42.59503" lon="2.45272">
        <ele>469</ele>
        <time>2022-10-08T12:39:15Z</time>
      </trkpt>
      <trkpt lat="42.59501" lon="2.45271">
        <ele>469</ele>
        <time>2022-10-08T12:39:18Z</time>
      </trkpt>
    </trkseg>
  </trk>
</gpx>